Time;durP1;ratioP1;P1;durP2;ratioP2;P2;SDS_P1;SDS_P2;PMS_P1;PMS_P2;Temp;Humidity;BMP_temperature;BMP_pressure;BME280_temperature;BME280_humidity;BME280_pressure;Samples;Min_cycle;Max_cycle;Signal;HPM_P1;HPM_P2
2023/07/10 00:01:25;;;;;;;8.52;2.60;;;;;;;22.99;64.98;102163.91;5009467;28;20062;-45
2023/07/10 00:03:50;;;;;;;4.70;2.45;;;;;;;23.15;64.79;102161.84;5009309;28;20038;-44
2023/07/10 00:06:16;;;;;;;4.05;2.35;;;;;;;23.22;64.53;102156.38;5007958;28;20068;-45
2023/07/10 00:08:42;;;;;;;5.50;2.30;;;;;;;23.31;64.05;102161.53;5008597;28;20049;-48
2023/07/10 00:11:29;;;;;;;6.28;2.60;;;;;;;22.96;64.80;102158.63;5009410;28;20034;-47
2023/07/10 00:13:55;;;;;;;5.38;2.58;;;;;;;22.75;65.60;102159.84;5009178;28;20455;-44
2023/07/10 00:16:21;;;;;;;5.40;2.60;;;;;;;23.06;64.87;102163.75;5009428;28;20066;-44
2023/07/10 00:18:48;;;;;;;6.65;2.53;;;;;;;23.15;64.43;102170.69;5008691;28;20034;-44
2023/07/10 00:21:14;;;;;;;5.10;2.50;;;;;;;23.20;64.25;102167.94;5009762;28;20129;-49
2023/07/10 00:23:39;;;;;;;5.85;2.90;;;;;;;22.99;65.09;102172.75;5009387;28;20120;-46
2023/07/10 00:26:15;;;;;;;6.38;2.85;;;;;;;22.86;65.98;102170.34;5009413;28;20088;-47
2023/07/10 00:28:42;;;;;;;5.57;3.00;;;;;;;23.05;64.61;102169.97;5009553;28;20397;-46
2023/07/10 00:31:07;;;;;;;6.55;3.10;;;;;;;23.10;64.30;102161.94;5010773;28;20060;-43
2023/07/10 00:33:33;;;;;;;6.22;2.97;;;;;;;23.20;63.88;102166.16;5011846;28;20072;-47
2023/07/10 00:35:58;;;;;;;5.40;2.60;;;;;;;23.30;63.42;102172.19;5015873;28;20464;-48
2023/07/10 00:38:34;;;;;;;5.00;2.95;;;;;;;23.23;63.71;102174.13;5015146;28;20263;-47
2023/07/10 00:41:01;;;;;;;7.65;3.20;;;;;;;23.07;64.43;102177.94;5013360;28;20046;-47
2023/07/10 00:43:46;;;;;;;5.88;2.90;;;;;;;23.21;63.78;102161.72;5014783;28;20488;-47
2023/07/10 00:46:35;;;;;;;6.32;2.97;;;;;;;23.18;63.51;102160.00;5014691;28;20048;-43
2023/07/10 00:49:12;;;;;;;5.40;3.17;;;;;;;22.90;63.87;102164.06;5014150;28;20493;-43
2023/07/10 00:51:47;;;;;;;5.82;2.92;;;;;;;22.75;64.73;102165.19;5013035;28;20049;-47
2023/07/10 00:54:33;;;;;;;5.90;2.90;;;;;;;22.85;64.53;102174.78;5012636;28;20112;-47
2023/07/10 00:57:01;;;;;;;6.78;3.10;;;;;;;22.88;64.15;102174.72;5012456;28;20399;-47
2023/07/10 00:59:28;;;;;;;7.05;3.20;;;;;;;22.57;64.88;102162.78;5012214;28;20136;-43
2023/07/10 01:02:16;;;;;;;5.28;2.83;;;;;;;22.64;64.31;102167.97;5012777;28;20038;-49
2023/07/10 01:04:44;;;;;;;5.43;2.80;;;;;;;22.84;63.66;102159.72;5010242;28;20552;-44
2023/07/10 01:07:13;;;;;;;5.53;2.83;;;;;;;22.86;63.58;102157.03;5012791;28;20030;-44
2023/07/10 01:09:47;;;;;;;4.70;2.80;;;;;;;22.62;64.31;102158.28;5011593;28;20571;-48
2023/07/10 01:12:13;;;;;;;5.18;3.00;;;;;;;22.50;64.98;102154.06;5012631;28;20113;-44
2023/07/10 01:14:38;;;;;;;5.07;3.05;;;;;;;22.43;64.86;102162.13;5011967;28;20117;-48
2023/07/10 01:17:06;;;;;;;4.55;2.80;;;;;;;22.49;64.94;102168.25;5012485;28;20040;-45
2023/07/10 01:19:33;;;;;;;4.43;2.70;;;;;;;22.52;64.48;102156.66;5011276;28;20038;-43
2023/07/10 01:21:59;;;;;;;10.65;2.95;;;;;;;22.39;64.37;102155.97;5010618;28;20439;-44
2023/07/10 01:24:25;;;;;;;4.60;2.50;;;;;;;22.46;64.15;102151.44;5012232;28;20038;-46
2023/07/10 01:26:51;;;;;;;5.30;2.45;;;;;;;22.27;64.07;102162.34;5012010;28;20026;-51
2023/07/10 01:29:23;;;;;;;5.10;2.40;;;;;;;22.18;64.27;102167.81;5009750;28;20030;-50
2023/07/10 01:31:51;;;;;;;5.15;2.17;;;;;;;22.15;63.91;102166.97;5011726;28;20774;-44
2023/07/10 01:34:20;;;;;;;4.60;2.22;;;;;;;22.01;64.11;102166.28;5012160;28;20105;-49
2023/07/10 01:36:47;;;;;;;4.15;2.20;;;;;;;21.99;63.74;102166.31;5009806;28;20072;-44
2023/07/10 01:39:13;;;;;;;4.32;2.10;;;;;;;22.11;63.36;102159.94;5011442;28;20038;-43
2023/07/10 01:41:41;;;;;;;5.43;2.22;;;;;;;21.88;64.46;102152.25;5011605;28;20121;-45
2023/07/10 01:44:22;;;;;;;3.85;2.25;;;;;;;21.85;64.43;102158.47;5012061;28;20062;-44
2023/07/10 01:46:49;;;;;;;4.88;2.03;;;;;;;21.96;64.05;102155.72;5010921;28;20358;-44
2023/07/10 01:49:17;;;;;;;3.40;1.83;;;;;;;21.70;65.20;102145.41;5011653;28;20044;-43
2023/07/10 01:51:43;;;;;;;4.60;2.00;;;;;;;21.74;65.25;102159.50;5009971;28;20080;-49
2023/07/10 01:54:13;;;;;;;4.07;2.08;;;;;;;21.89;64.33;102159.34;5012584;28;20062;-46
2023/07/10 01:56:38;;;;;;;4.25;2.03;;;;;;;21.83;64.21;102160.25;5011708;28;20037;-48
2023/07/10 01:59:04;;;;;;;4.32;1.80;;;;;;;21.72;64.88;102156.88;5010413;28;20044;-47
2023/07/10 02:01:29;;;;;;;4.95;1.95;;;;;;;21.77;64.70;102159.50;5010195;28;20045;-43
2023/07/10 02:03:54;;;;;;;4.45;1.90;;;;;;;21.77;65.01;102152.38;5011547;28;20038;-45
2023/07/10 02:06:21;;;;;;;4.60;1.98;;;;;;;21.79;64.94;102145.28;5011755;28;20069;-47
2023/07/10 02:08:47;;;;;;;4.35;1.67;;;;;;;21.71;65.15;102149.78;5010518;28;20034;-46
2023/07/10 02:11:13;;;;;;;4.15;1.70;;;;;;;21.78;64.85;102146.19;5011255;28;20492;-47
2023/07/10 02:13:39;;;;;;;3.75;1.80;;;;;;;21.67;65.45;102141.91;5009921;28;20041;-44
2023/07/10 02:16:04;;;;;;;3.33;1.83;;;;;;;21.62;65.87;102141.09;5011250;28;20045;-44
2023/07/10 02:18:30;;;;;;;5.55;1.90;;;;;;;21.63;65.80;102143.72;5010429;28;20058;-45
2023/07/10 02:20:56;;;;;;;3.97;1.85;;;;;;;21.57;66.25;102133.19;5011026;28;20033;-47
2023/07/10 02:23:22;;;;;;;4.22;1.88;;;;;;;21.58;65.99;102144.69;5011316;28;20385;-45
2023/07/10 02:25:47;;;;;;;4.72;1.75;;;;;;;21.63;65.95;102141.06;5007007;28;20042;-50
2023/07/10 02:28:13;;;;;;;3.53;1.65;;;;;;;21.62;66.01;102136.66;5011142;28;20030;-46
2023/07/10 02:30:38;;;;;;;3.58;1.67;;;;;;;21.60;66.34;102140.22;5010871;28;20037;-45
2023/07/10 02:33:04;;;;;;;3.85;2.00;;;;;;;21.61;65.78;102140.19;5012169;28;20029;-43
2023/07/10 02:35:30;;;;;;;4.15;2.00;;;;;;;21.62;65.96;102130.47;5011519;28;20145;-44
2023/07/10 02:37:55;;;;;;;3.90;2.00;;;;;;;21.60;65.97;102138.44;5011988;28;20124;-43
2023/07/10 02:40:20;;;;;;;4.72;1.83;;;;;;;21.59;66.26;102136.69;5011725;28;20036;-45
2023/07/10 02:42:46;;;;;;;4.32;2.00;;;;;;;21.48;66.81;102135.06;5010807;28;20042;-46
2023/07/10 02:45:13;;;;;;;5.35;2.05;;;;;;;21.49;66.65;102129.72;5011034;28;20057;-47
2023/07/10 02:47:39;;;;;;;3.70;1.80;;;;;;;21.47;66.75;102134.16;5010505;28;20038;-46
2023/07/10 02:50:04;;;;;;;5.80;2.03;;;;;;;21.39;67.76;102144.00;5010337;28;20117;-45
2023/07/10 02:52:30;;;;;;;4.57;2.00;;;;;;;21.34;68.25;102143.19;5008835;28;20408;-46
2023/07/10 02:54:55;;;;;;;5.10;1.92;;;;;;;21.42;67.46;102138.66;5010831;28;20034;-45
2023/07/10 02:57:20;;;;;;;3.78;1.83;;;;;;;21.41;67.47;102137.78;5010550;28;20066;-46
2023/07/10 02:59:46;;;;;;;4.53;2.03;;;;;;;21.39;67.65;102134.28;5009960;28;20069;-45
2023/07/10 03:02:11;;;;;;;4.07;2.15;;;;;;;21.37;67.96;102144.03;5010656;28;20045;-45
2023/07/10 03:04:37;;;;;;;3.50;1.98;;;;;;;21.39;67.51;102142.25;5010362;28;20508;-43
2023/07/10 03:07:03;;;;;;;5.80;2.03;;;;;;;21.19;68.74;102149.53;5010576;28;20497;-47
2023/07/10 03:09:28;;;;;;;4.40;2.13;;;;;;;21.26;68.82;102151.22;5009412;28;20030;-45
2023/07/10 03:11:53;;;;;;;3.70;1.90;;;;;;;21.33;68.11;102152.03;5009778;28;20570;-44
2023/07/10 03:14:19;;;;;;;4.25;2.00;;;;;;;21.27;68.60;102144.16;5010252;28;20044;-43
2023/07/10 03:16:44;;;;;;;5.10;2.20;;;;;;;21.32;68.07;102143.19;5008552;28;20072;-46
2023/07/10 03:19:09;;;;;;;4.82;2.00;;;;;;;21.32;68.45;102148.50;5009672;28;20066;-42
2023/07/10 03:21:35;;;;;;;6.18;2.50;;;;;;;21.07;69.72;102146.97;5009790;28;20221;-44
2023/07/10 03:24:01;;;;;;;4.80;2.13;;;;;;;21.21;69.31;102150.41;5010175;28;20026;-52
2023/07/10 03:26:26;;;;;;;3.60;2.08;;;;;;;21.30;68.94;102155.59;5010427;28;20741;-44
2023/07/10 03:29:10;;;;;;;4.93;2.00;;;;;;;21.29;68.66;102153.81;5007797;28;20044;-48
2023/07/10 03:31:35;;;;;;;3.15;2.10;;;;;;;21.29;68.86;102160.91;5009555;28;20041;-46
2023/07/10 03:34:01;;;;;;;4.53;1.95;;;;;;;21.32;68.81;102161.78;5010219;28;20030;-50
2023/07/10 03:36:27;;;;;;;4.47;2.08;;;;;;;21.26;68.61;102163.59;5009936;28;20540;-45
2023/07/10 03:38:52;;;;;;;4.30;2.10;;;;;;;21.29;68.77;102167.09;5009044;28;20041;-45
2023/07/10 03:41:18;;;;;;;4.60;2.00;;;;;;;21.27;68.58;102160.94;5008760;28;20048;-43
2023/07/10 03:43:43;;;;;;;5.03;1.95;;;;;;;21.32;68.65;102158.25;5009477;28;20038;-47
2023/07/10 03:46:10;;;;;;;3.58;2.00;;;;;;;21.28;68.52;102161.81;5010048;28;20034;-42
2023/07/10 03:48:36;;;;;;;4.70;1.98;;;;;;;21.35;68.72;102163.50;5009108;28;20033;-46
2023/07/10 03:51:02;;;;;;;5.45;1.90;;;;;;;21.36;68.78;102165.25;5009671;28;20065;-45
2023/07/10 03:53:28;;;;;;;5.13;1.85;;;;;;;21.35;68.12;102166.13;5009477;28;20033;-53
2023/07/10 03:55:55;;;;;;;4.68;1.88;;;;;;;21.39;67.97;102171.44;5009703;28;20034;-46
2023/07/10 03:58:27;;;;;;;7.90;1.90;;;;;;;21.47;67.56;102178.44;5009179;28;20033;-47
2023/07/10 04:00:53;;;;;;;5.25;1.80;;;;;;;21.45;67.32;102178.44;5009117;28;20095;-44
2023/07/10 04:03:21;;;;;;;7.10;2.00;;;;;;;21.39;67.09;102182.03;5009801;28;20420;-47
2023/07/10 04:05:50;;;;;;;5.07;1.80;;;;;;;21.44;67.37;102179.31;5007689;28;20042;-44
2023/07/10 04:08:16;;;;;;;4.57;1.98;;;;;;;21.28;67.80;102185.69;5009617;28;20034;-47
2023/07/10 04:10:48;;;;;;;4.78;2.10;;;;;;;21.25;68.09;102191.91;5012824;28;20045;-44
2023/07/10 04:13:13;;;;;;;5.30;1.90;;;;;;;21.35;67.62;102192.66;5012409;28;20050;-45
2023/07/10 04:15:38;;;;;;;4.28;1.83;;;;;;;21.44;67.31;102205.84;5013144;28;20065;-49
2023/07/10 04:18:04;;;;;;;4.35;1.70;;;;;;;21.54;66.74;102203.97;5013417;28;20057;-44
2023/07/10 04:20:29;;;;;;;5.47;1.80;;;;;;;21.49;66.86;102201.38;5012503;28;20041;-49
2023/07/10 04:22:54;;;;;;;6.38;1.83;;;;;;;21.47;66.77;102200.50;5014004;28;20030;-44
2023/07/10 04:25:20;;;;;;;3.80;1.58;;;;;;;21.52;66.80;102205.78;5013374;28;20088;-46
2023/07/10 04:27:45;;;;;;;4.57;1.70;;;;;;;21.59;66.06;102207.47;5013028;28;20084;-50
2023/07/10 04:30:12;;;;;;;3.40;1.80;;;;;;;21.47;66.25;102200.50;5013034;28;20045;-44
2023/07/10 04:32:37;;;;;;;6.60;1.70;;;;;;;21.67;66.39;102205.59;5013098;28;20117;-43
2023/07/10 04:35:02;;;;;;;5.57;1.88;;;;;;;21.65;65.93;102207.41;5013396;28;20124;-43
2023/07/10 04:37:28;;;;;;;5.55;1.80;;;;;;;21.76;65.63;102208.16;5012590;28;20034;-46
2023/07/10 04:39:53;;;;;;;5.72;1.73;;;;;;;21.81;65.65;102208.97;5012733;28;20045;-46
2023/07/10 04:42:18;;;;;;;4.15;1.70;;;;;;;21.82;65.34;102208.97;5012984;28;20069;-44
2023/07/10 04:44:44;;;;;;;5.25;1.70;;;;;;;21.78;65.17;102204.56;5012373;28;20073;-48
2023/07/10 04:47:09;;;;;;;3.70;1.50;;;;;;;21.88;64.98;102205.38;5012905;28;20037;-43
2023/07/10 04:49:35;;;;;;;6.40;1.70;;;;;;;21.93;64.80;102206.19;5011818;28;20476;-45
2023/07/10 04:52:00;;;;;;;5.28;1.80;;;;;;;21.99;64.99;102200.81;5012904;28;20034;-45
2023/07/10 04:54:25;;;;;;;5.03;1.73;;;;;;;22.03;64.63;102199.00;5011912;28;20036;-43
2023/07/10 04:56:52;;;;;;;4.32;1.73;;;;;;;22.04;64.41;102206.94;5012483;28;20511;-48
2023/07/10 04:59:17;;;;;;;4.97;1.80;;;;;;;22.12;64.49;102202.44;5012299;28;20025;-44
2023/07/10 05:01:43;;;;;;;3.15;1.60;;;;;;;22.31;64.23;102204.84;5012097;28;20217;-47
2023/07/10 05:04:08;;;;;;;4.20;1.67;;;;;;;22.25;64.11;102203.16;5012365;28;20036;-42
2023/07/10 05:06:36;;;;;;;5.70;1.63;;;;;;;22.27;63.81;102206.63;5012339;28;20520;-47
2023/07/10 05:09:01;;;;;;;5.32;1.80;;;;;;;22.54;63.29;102197.41;5012175;28;20030;-44
2023/07/10 05:11:29;;;;;;;8.90;4.80;;;;;;;22.72;62.60;102204.22;5012709;28;20138;-45
2023/07/10 05:13:55;;;;;;;6.28;2.30;;;;;;;22.72;62.59;102207.78;5012305;28;20038;-46
2023/07/10 05:16:21;;;;;;;6.30;2.00;;;;;;;22.89;62.10;102205.72;5012643;28;20042;-44
2023/07/10 05:18:47;;;;;;;5.93;1.58;;;;;;;23.42;61.77;102206.59;5011557;28;20034;-43
2023/07/10 05:21:12;;;;;;;6.53;2.05;;;;;;;23.92;59.21;102210.03;5012292;28;20041;-43
2023/07/10 05:23:38;;;;;;;7.60;1.80;;;;;;;24.87;55.31;102210.56;5012438;28;20033;-49
2023/07/10 05:26:15;;;;;;;6.60;2.08;;;;;;;25.60;52.20;102200.69;5012670;28;20508;-43
2023/07/10 05:28:41;;;;;;;3.40;1.73;;;;;;;26.04;50.65;102199.41;5011371;28;20042;-45
2023/07/10 05:31:08;;;;;;;8.18;2.20;;;;;;;27.51;46.33;102191.00;5012098;28;20061;-51
2023/07/10 05:33:34;;;;;;;8.15;2.10;;;;;;;27.48;46.83;102192.88;5011686;28;20038;-46
2023/07/10 05:36:02;;;;;;;4.75;1.70;;;;;;;28.02;44.82;102193.53;5012161;28;20081;-45
2023/07/10 05:38:30;;;;;;;6.50;2.00;;;;;;;28.70;43.85;102198.00;5009074;28;20045;-43
2023/07/10 05:40:56;;;;;;;7.75;2.10;;;;;;;28.50;43.64;102203.28;5011694;28;20572;-45
2023/07/10 05:43:21;;;;;;;5.20;2.05;;;;;;;28.56;44.24;102206.59;5012013;28;20144;-46
2023/07/10 05:45:48;;;;;;;8.40;1.80;;;;;;;27.97;45.77;102200.88;5010103;28;20045;-48
2023/07/10 05:48:14;;;;;;;6.00;1.90;;;;;;;28.34;43.04;102200.38;5010077;28;20034;-45
2023/07/10 05:50:42;;;;;;;7.95;1.98;;;;;;;28.59;42.70;102213.66;5011394;28;20033;-49
2023/07/10 05:53:07;;;;;;;7.88;1.98;;;;;;;28.64;42.77;102211.66;5010242;28;20470;-50
2023/07/10 05:55:33;;;;;;;7.28;1.80;;;;;;;29.48;40.90;102213.50;5011254;28;20120;-46
2023/07/10 05:57:58;;;;;;;6.30;1.90;;;;;;;28.43;43.21;102223.25;5011707;28;20392;-45
2023/07/10 06:00:24;;;;;;;8.40;2.22;;;;;;;27.58;44.48;102222.00;5011499;28;20037;-53
2023/07/10 06:02:49;;;;;;;8.05;2.20;;;;;;;28.06;42.92;102219.28;5010409;28;20041;-43
2023/07/10 06:05:14;;;;;;;8.90;2.20;;;;;;;27.67;44.26;102219.00;5011870;28;20107;-47
2023/07/10 06:07:40;;;;;;;8.23;2.47;;;;;;;28.11;43.89;102221.81;5009418;28;20095;-43
2023/07/10 06:10:06;;;;;;;8.10;1.92;;;;;;;27.36;45.50;102224.53;5014231;28;20075;-47
2023/07/10 06:12:31;;;;;;;9.00;2.60;;;;;;;27.29;45.89;102233.72;5012153;28;20057;-48
2023/07/10 06:14:56;;;;;;;7.28;1.95;;;;;;;27.88;44.99;102229.84;5011623;28;20470;-49
2023/07/10 06:17:21;;;;;;;8.48;2.20;;;;;;;27.56;44.44;102229.22;5011670;28;20041;-48
2023/07/10 06:19:47;;;;;;;6.60;1.90;;;;;;;28.28;43.58;102226.56;5009434;28;20463;-48
2023/07/10 06:22:13;;;;;;;11.18;2.42;;;;;;;28.09;42.51;102229.03;5011385;28;20030;-45
2023/07/10 06:24:39;;;;;;;8.02;3.20;;;;;;;28.19;43.13;102225.97;5010866;28;20493;-48
2023/07/10 06:27:05;;;;;;;7.10;2.15;;;;;;;28.30;42.20;102230.91;5011239;28;20034;-45
2023/07/10 06:29:33;;;;;;;10.00;2.17;;;;;;;27.45;43.63;102226.00;5010104;28;20045;-47
2023/07/10 06:31:58;;;;;;;8.63;2.72;;;;;;;27.53;44.01;102225.78;5010267;28;20117;-46
2023/07/10 06:34:23;;;;;;;8.13;2.33;;;;;;;27.34;44.88;102241.56;5010941;28;20120;-50
2023/07/10 06:36:49;;;;;;;8.57;2.25;;;;;;;27.70;43.07;102234.94;5010390;28;20034;-47
2023/07/10 06:39:14;;;;;;;7.55;2.15;;;;;;;27.55;43.97;102235.50;5010726;28;20041;-47
2023/07/10 06:41:39;;;;;;;9.82;2.15;;;;;;;27.52;44.01;102232.94;5010263;28;20030;-46
2023/07/10 06:44:04;;;;;;;9.57;2.35;;;;;;;28.59;42.26;102245.88;5009511;28;20040;-48
2023/07/10 06:46:30;;;;;;;7.00;2.15;;;;;;;28.85;41.27;102244.84;5010601;28;20127;-52
2023/07/10 06:48:55;;;;;;;10.25;2.33;;;;;;;28.45;41.40;102249.09;5008996;28;20121;-47
2023/07/10 06:51:20;;;;;;;7.47;2.13;;;;;;;28.50;41.54;102246.22;5010074;28;20121;-46
2023/07/10 06:53:46;;;;;;;9.15;2.05;;;;;;;28.58;40.49;102250.38;5009465;28;20033;-45
2023/07/10 06:56:11;;;;;;;6.30;2.25;;;;;;;27.40;43.38;102252.97;5011209;28;20038;-43
2023/07/10 06:58:36;;;;;;;7.47;2.17;;;;;;;27.78;42.35;102254.31;5010371;28;20030;-49
2023/07/10 07:01:05;;;;;;;7.97;2.22;;;;;;;27.99;41.65;102252.66;5010442;28;20057;-42
2023/07/10 07:03:31;;;;;;;10.82;2.30;;;;;;;28.78;39.57;102260.34;5011220;28;20033;-43
2023/07/10 07:05:56;;;;;;;8.63;2.20;;;;;;;29.30;38.38;102250.06;5011760;28;20432;-45
2023/07/10 07:08:23;;;;;;;8.02;2.10;;;;;;;28.19;39.42;102255.47;5011327;28;20029;-45
2023/07/10 07:10:51;;;;;;;10.02;2.10;;;;;;;29.10;39.38;102258.09;5011267;28;20022;-48
2023/07/10 07:13:17;;;;;;;8.23;2.03;;;;;;;28.22;40.51;102266.09;5009848;28;20030;-43
2023/07/10 07:15:42;;;;;;;8.77;1.95;;;;;;;28.41;39.28;102266.25;5008821;28;21082;-46
2023/07/10 07:18:08;;;;;;;8.88;2.00;;;;;;;28.25;39.16;102259.72;5009806;28;20034;-43
2023/07/10 07:20:33;;;;;;;14.00;2.25;;;;;;;28.84;38.05;102264.56;5009527;28;20042;-45
2023/07/10 07:22:59;;;;;;;8.07;1.90;;;;;;;28.81;38.04;102262.00;5010326;28;20026;-47
2023/07/10 07:25:28;;;;;;;7.43;2.05;;;;;;;29.03;36.96;102252.16;5010294;28;20046;-46
2023/07/10 07:27:54;;;;;;;11.13;2.17;;;;;;;28.44;38.52;102254.50;5010358;28;20029;-49
2023/07/10 07:30:19;;;;;;;9.43;1.70;;;;;;;27.95;38.92;102251.00;5011936;28;20048;-45
2023/07/10 07:32:47;;;;;;;8.93;1.90;;;;;;;29.13;38.22;102245.44;5012501;28;20073;-44
2023/07/10 07:35:12;;;;;;;7.55;1.90;;;;;;;29.67;36.71;102257.44;5013023;28;20033;-48
2023/07/10 07:37:38;;;;;;;5.78;1.67;;;;;;;29.69;35.51;102251.06;5012031;28;20042;-46
2023/07/10 07:40:06;;;;;;;10.00;2.15;;;;;;;29.61;35.84;102255.03;5011415;28;20449;-44
2023/07/10 07:42:32;;;;;;;7.70;1.80;;;;;;;29.53;35.54;102252.66;5008761;28;20042;-47
2023/07/10 07:44:57;;;;;;;6.38;1.80;;;;;;;28.19;38.54;102259.94;5009500;28;20080;-43
2023/07/10 07:47:23;;;;;;;7.53;1.80;;;;;;;29.20;35.85;102257.66;5010344;28;20034;-53
2023/07/10 07:49:49;;;;;;;8.10;1.80;;;;;;;29.05;36.58;102264.56;5005546;28;20563;-45
2023/07/10 07:52:14;;;;;;;9.23;1.70;;;;;;;28.76;37.45;102266.69;5008497;28;20064;-45
2023/07/10 07:54:39;;;;;;;7.85;1.80;;;;;;;28.74;36.66;102263.19;5008719;28;20034;-47
2023/07/10 07:57:05;;;;;;;6.97;1.75;;;;;;;28.74;38.17;102261.38;5009050;28;20412;-44
2023/07/10 07:59:30;;;;;;;7.63;1.75;;;;;;;28.36;36.94;102264.69;5008810;28;20053;-44
2023/07/10 08:01:55;;;;;;;9.63;1.88;;;;;;;28.08;38.50;102268.38;5009366;28;20519;-47
2023/07/10 08:04:21;;;;;;;6.88;1.55;;;;;;;29.55;35.36;102258.84;5009842;28;20523;-44
2023/07/10 08:06:48;;;;;;;9.63;1.95;;;;;;;28.45;38.67;102254.47;5007729;28;20088;-48
2023/07/10 08:09:14;;;;;;;8.35;2.00;;;;;;;28.48;38.57;102256.16;5008228;28;20062;-50
2023/07/10 08:11:40;;;;;;;7.07;1.80;;;;;;;28.40;38.34;102252.91;5008142;28;20046;-51
2023/07/10 08:14:05;;;;;;;13.43;2.42;;;;;;;28.93;37.52;102259.69;5009145;28;20026;-46
2023/07/10 08:16:31;;;;;;;8.25;2.17;;;;;;;29.32;36.43;102256.28;5008600;28;20062;-48
2023/07/10 08:18:56;;;;;;;8.45;2.20;;;;;;;28.60;38.88;102251.19;5008253;28;20033;-47
2023/07/10 08:21:21;;;;;;;10.55;2.13;;;;;;;28.47;38.87;102259.78;5009371;28;20088;-50
2023/07/10 08:23:47;;;;;;;6.75;1.85;;;;;;;28.68;38.14;102256.22;5007616;28;20492;-49
2023/07/10 08:26:13;;;;;;;7.15;1.98;;;;;;;28.94;38.91;102263.25;5008192;28;20440;-46
2023/07/10 08:28:38;;;;;;;8.15;1.90;;;;;;;29.09;37.42;102254.56;5008635;28;20034;-48
2023/07/10 08:31:03;;;;;;;9.63;1.85;;;;;;;30.14;36.34;102250.78;5008782;28;20052;-46
2023/07/10 08:33:29;;;;;;;9.30;1.80;;;;;;;30.28;35.81;102258.22;5008640;28;20122;-46
2023/07/10 08:35:56;;;;;;;7.75;1.90;;;;;;;31.33;33.97;102244.97;5008911;28;20655;-44
2023/07/10 08:38:21;;;;;;;7.15;1.90;;;;;;;29.71;36.08;102253.66;5008460;28;20041;-46
2023/07/10 08:40:50;;;;;;;8.27;1.95;;;;;;;29.76;35.67;102259.72;5008189;28;20037;-49
2023/07/10 08:43:33;;;;;;;9.50;2.05;;;;;;;28.31;38.75;102255.91;5009334;28;20435;-49
2023/07/10 08:46:10;;;;;;;7.80;1.75;;;;;;;27.78;40.21;102262.34;5008882;28;20042;-48
2023/07/10 08:48:45;;;;;;;11.95;2.30;;;;;;;27.31;41.94;102260.44;5007884;28;20033;-49
2023/07/10 08:51:20;;;;;;;9.70;2.08;;;;;;;27.06;43.00;102263.06;5008747;28;20034;-47
2023/07/10 08:53:53;;;;;;;8.52;1.70;;;;;;;27.24;42.14;102262.47;5006655;28;20069;-44
2023/07/10 08:56:28;;;;;;;7.90;2.20;;;;;;;27.09;42.00;102265.63;5012407;28;20448;-47
2023/07/10 08:59:03;;;;;;;7.13;1.75;;;;;;;27.10;41.16;102264.72;5010601;28;20044;-47
2023/07/10 09:01:33;;;;;;;7.07;1.85;;;;;;;27.27;41.81;102266.81;5011937;28;20099;-52
2023/07/10 09:04:00;;;;;;;6.40;1.70;;;;;;;27.28;41.68;102261.41;5012622;28;20041;-47
2023/07/10 09:06:50;;;;;;;7.07;1.80;;;;;;;27.15;40.88;102270.78;5012832;28;20052;-45
2023/07/10 09:09:25;;;;;;;6.85;2.00;;;;;;;26.70;42.47;102278.50;5003370;28;20060;-44
2023/07/10 09:11:52;;;;;;;6.28;1.80;;;;;;;26.72;43.11;102273.06;5011986;28;20041;-48
2023/07/10 09:14:38;;;;;;;8.73;1.98;;;;;;;26.97;42.23;102271.41;5012638;28;20030;-48
2023/07/10 09:17:15;;;;;;;9.90;2.20;;;;;;;26.61;43.00;102273.41;5012519;28;20407;-45
2023/07/10 09:19:42;;;;;;;6.57;1.70;;;;;;;26.32;44.26;102281.47;5011683;28;20030;-45
2023/07/10 09:22:10;;;;;;;9.13;2.10;;;;;;;26.29;43.79;102277.06;5012338;28;20060;-43
2023/07/10 09:24:35;;;;;;;6.65;1.90;;;;;;;27.14;42.53;102260.16;5011930;28;20662;-44
2023/07/10 09:27:00;;;;;;;7.18;1.73;;;;;;;27.25;42.52;102261.53;5012480;28;20050;-46
2023/07/10 09:29:31;;;;;;;7.40;1.80;;;;;;;27.69;42.21;102259.97;5012148;28;20030;-49
2023/07/10 09:32:12;;;;;;;6.80;1.77;;;;;;;27.00;42.91;102261.47;5011771;28;20026;-46
2023/07/10 09:34:46;;;;;;;9.40;2.00;;;;;;;27.44;42.46;102256.41;5011783;28;20557;-47
2023/07/10 09:37:13;;;;;;;8.15;2.28;;;;;;;27.26;42.35;102262.41;5012505;28;20034;-45
2023/07/10 09:39:39;;;;;;;9.30;2.00;;;;;;;26.27;43.63;102273.59;5012502;28;20041;-45
2023/07/10 09:42:12;;;;;;;7.78;2.00;;;;;;;25.75;43.91;102271.47;5012299;28;20030;-45
2023/07/10 09:44:45;;;;;;;7.43;2.20;;;;;;;26.32;43.05;102274.31;5011600;28;20145;-43
2023/07/10 09:47:13;;;;;;;5.90;1.75;;;;;;;26.54;42.85;102272.72;5012941;28;20083;-48
2023/07/10 09:49:46;;;;;;;9.70;1.85;;;;;;;26.65;41.59;102275.09;5012127;28;20041;-43
2023/07/10 09:52:31;;;;;;;7.45;2.05;;;;;;;26.40;42.25;102282.13;5012234;28;20033;-45
2023/07/10 09:55:07;;;;;;;9.10;1.90;;;;;;;26.87;42.61;102284.19;5012837;28;20544;-48
2023/07/10 09:57:40;;;;;;;5.53;1.60;;;;;;;27.00;41.79;102274.88;5011859;28;20057;-43
2023/07/10 10:00:14;;;;;;;11.50;2.20;;;;;;;26.85;42.41;102269.97;5012548;28;20041;-47
2023/07/10 10:02:52;;;;;;;7.88;1.80;;;;;;;26.93;42.00;102267.97;5012119;28;20397;-48
2023/07/10 10:05:21;;;;;;;5.55;1.70;;;;;;;26.90;42.16;102278.75;5012461;28;20159;-50
2023/07/10 10:07:49;;;;;;;7.38;2.08;;;;;;;26.69;43.76;102281.22;5010454;28;20046;-46
2023/07/10 10:10:29;;;;;;;8.60;2.03;;;;;;;27.45;41.58;102269.72;5011165;28;20041;-46
2023/07/10 10:13:10;;;;;;;8.68;1.80;;;;;;;27.74;39.98;102268.75;5011317;28;20038;-49
2023/07/10 10:16:22;;;;;;;6.38;1.70;;;;;;;27.52;40.89;102265.06;5010910;28;20039;-48
2023/07/10 10:19:00;;;;;;;6.90;2.10;;;;;;;26.95;42.00;102274.16;4982912;28;20049;-46
2023/07/10 10:21:30;;;;;;;8.32;1.50;;;;;;;27.68;40.87;102265.44;5011553;28;20046;-45
2023/07/10 10:23:58;;;;;;;6.40;1.92;;;;;;;27.66;42.03;102268.16;5010856;28;20080;-48
2023/07/10 10:26:50;;;;;;;9.98;1.98;;;;;;;27.46;41.79;102273.28;5011450;28;20114;-46
2023/07/10 10:29:15;;;;;;;6.50;1.90;;;;;;;28.22;39.55;102268.78;5010753;28;20044;-47
2023/07/10 10:32:23;;;;;;;9.80;1.95;;;;;;;28.57;38.87;102272.75;5010902;28;20129;-44
2023/07/10 10:34:57;;;;;;;5.72;1.80;;;;;;;27.93;40.02;102274.31;5011730;28;20046;-46
2023/07/10 10:37:35;;;;;;;7.15;2.20;;;;;;;27.63;41.57;102280.78;5013701;28;20034;-43
2023/07/10 10:40:10;;;;;;;7.43;1.90;;;;;;;27.12;40.98;102284.28;5011559;28;20121;-48
2023/07/10 10:42:43;;;;;;;8.98;1.73;;;;;;;28.15;40.18;102277.09;5011771;28;20038;-51
2023/07/10 10:45:15;;;;;;;;;;;;;;;27.68;40.45;102270.78;5012570;28;20041;-46
2023/07/10 10:48:15;;;;;;;6.63;1.98;;;;;;;28.15;39.56;102283.34;5010260;28;19943;-46
2023/07/10 10:50:59;;;;;;;4.78;1.70;;;;;;;28.87;37.60;102284.09;5010069;28;20088;-47
2023/07/10 10:53:24;;;;;;;;;;;;;;;28.06;38.65;102283.63;5011487;28;20080;-44
2023/07/10 10:56:05;;;;;;;8.53;1.80;;;;;;;27.92;38.59;102277.94;5009208;28;19917;-45
2023/07/10 10:58:49;;;;;;;9.85;2.28;;;;;;;27.71;39.03;102271.53;5008672;28;20045;-48
2023/07/10 11:01:21;;;;;;;4.82;1.42;;;;;;;27.95;37.88;102279.59;5010320;28;20354;-46
2023/07/10 11:03:52;;;;;;;9.45;1.90;;;;;;;27.32;40.07;102278.28;5010113;28;20034;-48
2023/07/10 11:06:45;;;;;;;9.02;1.90;;;;;;;27.77;38.74;102270.44;5010460;28;20044;-44
2023/07/10 11:09:16;;;;;;;6.50;1.70;;;;;;;28.31;37.81;102267.53;5010015;28;20556;-48
2023/07/10 11:11:42;;;;;;;6.20;1.58;;;;;;;28.09;38.34;102269.25;5009885;28;20064;-49
2023/07/10 11:14:10;;;;;;;6.70;1.70;;;;;;;28.00;37.12;102272.25;5009460;28;20030;-48
2023/07/10 11:16:36;;;;;;;5.25;1.50;;;;;;;27.64;37.56;102267.31;5008984;28;20416;-45
2023/07/10 11:19:04;;;;;;;9.32;2.05;;;;;;;27.92;38.47;102269.91;5009639;28;20026;-48
2023/07/10 11:21:31;;;;;;;5.25;1.70;;;;;;;27.90;38.91;102262.81;5009795;28;20065;-47
2023/07/10 11:23:57;;;;;;;4.63;1.60;;;;;;;28.09;38.66;102269.25;5010341;28;20105;-46
2023/07/10 11:26:24;;;;;;;6.03;1.60;;;;;;;27.68;37.84;102270.78;5010336;28;20500;-47
2023/07/10 11:28:55;;;;;;;4.97;1.50;;;;;;;27.80;37.64;102273.03;5009308;28;20476;-52
2023/07/10 11:31:30;;;;;;;6.38;1.83;;;;;;;27.40;38.82;102258.31;5009865;28;20427;-47